createdAt,value
2018-05-10T00:00:25.690Z,18.50
2018-05-10T00:02:53.383Z,18.50
2018-05-10T00:05:21.816Z,18.40
2018-05-10T00:07:49.659Z,18.40
2018-05-10T00:10:17.332Z,18.40
2018-05-10T00:12:45.025Z,18.30
2018-05-10T00:15:12.723Z,18.30
2018-05-10T00:17:40.398Z,18.30
2018-05-10T00:20:08.822Z,18.30
2018-05-10T00:22:36.514Z,18.20
2018-05-10T00:25:04.196Z,18.30
2018-05-10T00:27:32.649Z,18.20
2018-05-10T00:30:00.336Z,18.20
2018-05-10T00:32:28.786Z,18.10
2018-05-10T00:34:56.463Z,18.10
2018-05-10T00:37:24.156Z,18.10
2018-05-10T00:39:51.849Z,18.10
2018-05-10T00:42:19.542Z,18.00
2018-05-10T00:44:47.270Z,18.00
2018-05-10T00:47:15.004Z,18.00
2018-05-10T00:49:43.513Z,18.00
2018-05-10T00:52:11.199Z,18.00
2018-05-10T00:54:44.782Z,18.10
2018-05-10T00:57:12.554Z,18.10
2018-05-10T00:59:40.222Z,18.10
2018-05-10T01:02:07.926Z,18.10
2018-05-10T01:04:36.367Z,18.10
2018-05-10T01:07:04.064Z,18.00
2018-05-10T01:09:32.512Z,18.10
2018-05-10T01:12:00.178Z,18.10
2018-05-10T01:14:27.879Z,18.10
2018-05-10T01:16:55.628Z,18.10
2018-05-10T01:19:23.286Z,18.10
2018-05-10T01:21:51.043Z,18.10
2018-05-10T01:24:18.910Z,18.10
2018-05-10T01:26:46.568Z,18.20
2018-05-10T01:29:14.248Z,18.10
2018-05-10T01:31:41.954Z,18.20
2018-05-10T01:34:09.620Z,18.20
2018-05-10T01:36:37.286Z,18.20
2018-05-10T01:39:04.976Z,18.20
2018-05-10T01:41:32.651Z,18.20
2018-05-10T01:44:00.339Z,18.20
2018-05-10T01:46:28.016Z,18.20
2018-05-10T01:48:56.972Z,18.20
2018-05-10T01:51:24.941Z,18.20
2018-05-10T01:53:52.608Z,18.20
2018-05-10T01:56:20.274Z,18.20
2018-05-10T01:58:47.968Z,18.20
2018-05-10T02:01:16.414Z,18.30
2018-05-10T02:03:44.090Z,18.40
2018-05-10T02:06:11.833Z,18.40
2018-05-10T02:08:39.561Z,18.40
2018-05-10T02:11:07.978Z,18.30
2018-05-10T02:13:35.758Z,18.30
2018-05-10T02:16:03.422Z,18.20
2018-05-10T02:18:31.109Z,18.20
2018-05-10T02:20:59.638Z,18.10
2018-05-10T02:23:27.326Z,18.10
2018-05-10T02:25:55.067Z,18.20
2018-05-10T02:28:23.503Z,18.10
2018-05-10T02:30:51.959Z,18.00
2018-05-10T02:33:19.689Z,18.00
2018-05-10T02:35:47.377Z,17.90
2018-05-10T02:38:15.117Z,18.00
2018-05-10T02:40:42.803Z,17.80
2018-05-10T02:43:10.533Z,17.80
2018-05-10T02:45:38.960Z,17.80
2018-05-10T02:48:07.633Z,17.80
2018-05-10T02:50:35.373Z,17.80
2018-05-10T02:53:03.130Z,17.80
2018-05-10T02:55:30.908Z,17.70
2018-05-10T02:57:58.584Z,17.80
2018-05-10T03:00:26.277Z,17.80
2018-05-10T03:02:54.711Z,17.80
2018-05-10T03:05:22.408Z,17.80
2018-05-10T03:07:50.075Z,17.90
2018-05-10T03:10:17.827Z,17.90
2018-05-10T03:12:45.595Z,17.90
2018-05-10T03:15:13.251Z,17.90
2018-05-10T03:17:40.930Z,17.80
2018-05-10T03:20:08.889Z,17.80
2018-05-10T03:22:36.643Z,17.80
2018-05-10T03:25:04.419Z,17.80
2018-05-10T03:27:32.064Z,17.80
2018-05-10T03:29:59.846Z,17.80
2018-05-10T03:32:27.493Z,17.80
2018-05-10T03:34:55.175Z,17.80
2018-05-10T03:37:22.914Z,17.80
2018-05-10T03:39:50.704Z,17.90
2018-05-10T03:42:18.363Z,17.90
2018-05-10T03:44:46.032Z,18.00
2018-05-10T03:47:13.767Z,17.90
2018-05-10T03:49:41.438Z,17.90
2018-05-10T03:52:09.132Z,17.80
2018-05-10T03:54:36.858Z,17.80
2018-05-10T03:57:04.623Z,17.80
2018-05-10T03:59:32.290Z,17.90
2018-05-10T04:02:00.048Z,17.90
2018-05-10T04:04:33.622Z,17.90
2018-05-10T04:07:07.875Z,17.80
2018-05-10T04:09:41.372Z,17.80
2018-05-10T04:12:09.065Z,17.90
2018-05-10T04:14:37.499Z,18.00
2018-05-10T04:17:05.255Z,18.00
2018-05-10T04:19:32.923Z,18.00
2018-05-10T04:22:01.235Z,18.00
2018-05-10T04:24:28.919Z,18.00
2018-05-10T04:26:57.378Z,18.00
2018-05-10T04:29:25.052Z,17.90
2018-05-10T04:31:53.507Z,18.10
2018-05-10T04:34:21.254Z,18.10
2018-05-10T04:36:48.949Z,18.10
2018-05-10T04:39:16.636Z,18.10
2018-05-10T04:41:45.078Z,18.20
2018-05-10T04:44:12.756Z,18.10
2018-05-10T04:46:40.454Z,18.20
2018-05-10T04:49:09.674Z,18.20
2018-05-10T04:51:37.442Z,18.20
2018-05-10T04:54:05.119Z,18.20
2018-05-10T04:56:32.806Z,18.20
2018-05-10T04:59:00.512Z,18.20
2018-05-10T05:01:28.300Z,18.20
2018-05-10T05:03:56.070Z,18.30
2018-05-10T05:06:23.755Z,18.30
2018-05-10T05:08:51.529Z,18.30
2018-05-10T05:11:19.111Z,18.40
2018-05-10T05:13:47.546Z,18.40
2018-05-10T05:16:15.834Z,18.40
2018-05-10T05:18:43.515Z,18.40
2018-05-10T05:21:11.191Z,18.30
2018-05-10T05:23:39.718Z,18.30
2018-05-10T05:26:07.405Z,18.30
2018-05-10T05:28:35.096Z,18.30
2018-05-10T05:31:02.775Z,18.40
2018-05-10T05:33:31.286Z,18.60
2018-05-10T05:35:59.179Z,18.60
2018-05-10T05:38:27.152Z,18.60
2018-05-10T05:40:54.890Z,18.60
2018-05-10T05:43:22.788Z,18.60
2018-05-10T05:45:50.438Z,18.70
2018-05-10T05:48:18.285Z,18.70
2018-05-10T05:50:46.090Z,18.80
2018-05-10T05:53:13.792Z,18.60
2018-05-10T05:55:41.490Z,18.70
2018-05-10T05:58:09.176Z,18.70
2018-05-10T06:00:36.911Z,18.80
2018-05-10T06:03:04.675Z,19.00
2018-05-10T06:05:32.449Z,19.10
2018-05-10T06:08:00.236Z,19.10
2018-05-10T06:10:27.912Z,19.20
2018-05-10T06:12:55.602Z,19.30
2018-05-10T06:15:24.179Z,19.30
2018-05-10T06:17:51.883Z,19.30
2018-05-10T06:20:19.568Z,19.40
2018-05-10T06:22:47.261Z,19.50
2018-05-10T06:25:14.994Z,19.60
2018-05-10T06:27:43.455Z,19.80
2018-05-10T06:30:11.234Z,19.80
2018-05-10T06:32:39.214Z,19.90
2018-05-10T06:35:06.980Z,20.00
2018-05-10T06:37:34.744Z,20.10
2018-05-10T06:40:02.486Z,20.20
2018-05-10T06:42:30.272Z,20.10
2018-05-10T06:44:57.932Z,20.20
2018-05-10T06:47:25.628Z,20.30
2018-05-10T06:49:54.150Z,20.40
2018-05-10T06:52:21.950Z,20.40
2018-05-10T06:54:49.600Z,20.40
2018-05-10T06:57:17.583Z,20.50
2018-05-10T06:59:45.586Z,20.70
2018-05-10T07:02:14.350Z,20.70
2018-05-10T07:04:42.318Z,20.70
2018-05-10T07:07:10.286Z,20.60
2018-05-10T07:09:38.240Z,20.70
2018-05-10T07:12:06.763Z,20.90
2018-05-10T07:14:35.423Z,20.80
2018-05-10T07:17:03.367Z,20.80
2018-05-10T07:19:31.211Z,20.80
2018-05-10T07:21:59.126Z,21.00
2018-05-10T07:24:27.097Z,21.00
2018-05-10T07:26:54.861Z,21.20
2018-05-10T07:29:22.599Z,21.30
2018-05-10T07:31:50.271Z,21.40
2018-05-10T07:34:18.194Z,21.60
2018-05-10T07:36:47.461Z,21.70
2018-05-10T07:39:15.355Z,21.70
2018-05-10T07:41:43.789Z,22.20
2018-05-10T07:44:11.548Z,22.10
2018-05-10T07:46:39.352Z,22.50
2018-05-10T07:49:07.037Z,22.90
2018-05-10T07:51:35.584Z,23.10
2018-05-10T07:54:03.554Z,23.00
2018-05-10T07:56:31.234Z,22.90
2018-05-10T07:58:58.934Z,23.00
2018-05-10T08:01:27.429Z,23.20
2018-05-10T08:03:55.235Z,23.20
2018-05-10T08:06:23.152Z,23.30
2018-05-10T08:08:50.838Z,23.20
2018-05-10T08:11:18.531Z,23.40
2018-05-10T08:13:46.424Z,23.40
2018-05-10T08:16:14.477Z,23.40
2018-05-10T08:18:42.178Z,23.40
2018-05-10T08:21:10.816Z,23.40
2018-05-10T08:23:44.623Z,23.30
2018-05-10T08:26:12.331Z,23.10
2018-05-10T08:28:40.845Z,23.30
2018-05-10T08:31:08.838Z,23.30
2018-05-10T08:33:36.536Z,23.40
2018-05-10T08:36:05.203Z,23.80
2018-05-10T08:38:32.878Z,23.80
2018-05-10T08:41:01.638Z,24.10
2018-05-10T08:43:29.373Z,24.10
2018-05-10T08:45:57.177Z,24.20
2018-05-10T08:48:24.891Z,24.10
2018-05-10T08:50:52.575Z,24.30
2018-05-10T08:53:20.260Z,24.20
2018-05-10T08:55:48.101Z,24.20
2018-05-10T08:58:16.023Z,24.20
2018-05-10T09:00:43.720Z,24.20
2018-05-10T09:03:11.393Z,24.30
2018-05-10T09:05:39.074Z,24.40
2018-05-10T09:08:06.762Z,24.50
2018-05-10T09:10:34.451Z,24.60
2018-05-10T09:13:02.134Z,24.50
2018-05-10T09:15:29.887Z,24.50
2018-05-10T09:17:57.654Z,24.50
2018-05-10T09:20:25.320Z,24.50
2018-05-10T09:22:53.022Z,24.50
2018-05-10T09:25:20.704Z,24.60
2018-05-10T09:27:48.367Z,24.70
2018-05-10T09:30:16.377Z,24.80
2018-05-10T09:32:44.142Z,24.90
2018-05-10T09:35:12.010Z,24.80
2018-05-10T09:37:39.883Z,25.00
2018-05-10T09:40:08.055Z,25.00
2018-05-10T09:42:35.823Z,25.20
2018-05-10T09:45:03.480Z,25.10
2018-05-10T09:47:31.244Z,25.10
2018-05-10T09:49:58.910Z,25.20
2018-05-10T09:52:26.702Z,25.40
2018-05-10T09:54:54.390Z,25.50
2018-05-10T09:57:22.056Z,25.60
2018-05-10T09:59:49.921Z,25.70
2018-05-10T10:02:17.517Z,25.70
2018-05-10T10:04:45.279Z,25.80
2018-05-10T10:07:12.972Z,25.50
2018-05-10T10:09:40.699Z,25.60
2018-05-10T10:12:08.384Z,25.70
2018-05-10T10:14:36.114Z,25.70
2018-05-10T10:17:03.812Z,25.90
2018-05-10T10:19:31.531Z,26.10
2018-05-10T10:21:59.219Z,26.10
2018-05-10T10:24:26.982Z,26.20
2018-05-10T10:26:54.672Z,26.20
2018-05-10T10:29:24.046Z,26.50
2018-05-10T10:31:51.737Z,26.40
2018-05-10T10:34:19.478Z,26.60
2018-05-10T10:36:47.230Z,26.70
2018-05-10T10:39:14.903Z,26.90
2018-05-10T10:41:42.683Z,26.80
2018-05-10T10:44:10.457Z,26.90
2018-05-10T10:46:38.125Z,26.90
2018-05-10T10:49:05.888Z,26.90
2018-05-10T10:51:33.551Z,26.80
2018-05-10T10:54:01.220Z,27.00
2018-05-10T10:56:28.906Z,27.00
2018-05-10T10:58:57.431Z,27.30
2018-05-10T11:01:25.123Z,27.30
2018-05-10T11:03:52.790Z,27.30
2018-05-10T11:06:20.527Z,27.40
2018-05-10T11:08:48.254Z,27.70
2018-05-10T11:11:15.891Z,27.90
2018-05-10T11:13:43.563Z,27.80
2018-05-10T11:16:12.027Z,27.90
2018-05-10T11:18:39.707Z,27.90
2018-05-10T11:21:07.429Z,28.10
2018-05-10T11:23:35.079Z,28.50
2018-05-10T11:26:02.873Z,28.60
2018-05-10T11:28:30.578Z,28.60
2018-05-10T11:30:59.095Z,28.90
2018-05-10T11:33:26.771Z,28.90
2018-05-10T11:35:54.464Z,29.10
2018-05-10T11:38:22.180Z,29.40
2018-05-10T11:40:49.976Z,29.40
2018-05-10T11:43:17.631Z,29.20
2018-05-10T11:45:45.370Z,29.40
2018-05-10T11:48:13.071Z,29.50
2018-05-10T11:50:40.803Z,29.40
2018-05-10T11:53:08.495Z,29.70
2018-05-10T11:55:36.260Z,29.90
2018-05-10T11:58:03.921Z,29.80
2018-05-10T12:00:31.607Z,29.80
2018-05-10T12:03:00.170Z,30.00
2018-05-10T12:05:27.819Z,30.00
2018-05-10T12:07:55.511Z,30.10
2018-05-10T12:10:24.797Z,30.70
2018-05-10T12:12:52.458Z,30.70
2018-05-10T12:15:20.133Z,31.60
2018-05-10T12:17:47.817Z,31.80
2018-05-10T12:20:16.255Z,33.10
2018-05-10T12:22:43.941Z,33.00
2018-05-10T12:25:11.674Z,33.10
2018-05-10T12:27:39.451Z,32.90
2018-05-10T12:30:07.158Z,33.40
2018-05-10T12:32:35.685Z,32.70
2018-05-10T12:35:03.498Z,32.70
2018-05-10T12:37:31.190Z,32.20
2018-05-10T12:39:59.650Z,32.60
2018-05-10T12:42:28.111Z,33.00
2018-05-10T12:44:55.782Z,33.00
2018-05-10T12:47:24.243Z,34.70
2018-05-10T12:49:51.920Z,34.60
2018-05-10T12:52:19.671Z,36.30
2018-05-10T12:54:47.341Z,36.90
2018-05-10T12:57:15.007Z,36.90
2018-05-10T12:59:42.730Z,36.30
2018-05-10T13:02:10.506Z,35.90
2018-05-10T13:04:38.292Z,35.90
2018-05-10T13:07:05.935Z,35.50
2018-05-10T13:09:33.639Z,34.80
2018-05-10T13:12:01.317Z,34.50
2018-05-10T13:14:29.815Z,33.40
2018-05-10T13:16:57.491Z,33.30
2018-05-10T13:19:25.269Z,33.60
2018-05-10T13:21:52.956Z,33.60
2018-05-10T13:24:20.720Z,34.00
2018-05-10T13:26:48.389Z,34.60
2018-05-10T13:29:16.118Z,34.70
2018-05-10T13:31:43.791Z,35.10
2018-05-10T13:34:11.546Z,35.40
2018-05-10T13:36:39.223Z,36.10
2018-05-10T13:39:06.906Z,37.00
2018-05-10T13:41:34.599Z,37.80
2018-05-10T13:44:03.055Z,37.30
2018-05-10T13:46:30.736Z,37.30
2018-05-10T13:48:58.427Z,37.80
2018-05-10T13:51:26.103Z,38.30
2018-05-10T13:53:53.798Z,38.80
2018-05-10T13:56:21.468Z,38.40
2018-05-10T13:58:49.543Z,39.40
2018-05-10T14:01:17.217Z,39.50
2018-05-10T14:03:44.957Z,40.10
2018-05-10T14:06:12.634Z,39.70
2018-05-10T14:08:40.311Z,39.60
2018-05-10T14:11:08.095Z,39.30
2018-05-10T14:13:35.745Z,38.90
2018-05-10T14:16:04.183Z,38.70
2018-05-10T14:18:31.987Z,38.60
2018-05-10T14:20:59.711Z,38.60
2018-05-10T14:23:27.471Z,38.50
2018-05-10T14:25:55.199Z,38.70
2018-05-10T14:28:23.646Z,39.20
2018-05-10T14:30:51.330Z,39.20
2018-05-10T14:33:19.850Z,38.60
2018-05-10T14:35:48.284Z,38.40
2018-05-10T14:38:15.960Z,38.40
2018-05-10T14:40:44.439Z,38.80
2018-05-10T14:43:12.111Z,38.70
2018-05-10T14:45:40.579Z,38.40
2018-05-10T14:48:08.253Z,38.40
2018-05-10T14:50:36.784Z,39.40
2018-05-10T14:53:04.451Z,39.40
2018-05-10T14:55:32.216Z,40.10
2018-05-10T14:57:59.899Z,40.10
2018-05-10T15:00:27.659Z,39.70
2018-05-10T15:02:55.331Z,39.60
2018-05-10T15:05:23.038Z,39.30
2018-05-10T15:07:50.716Z,39.80
2018-05-10T15:10:18.413Z,39.50
2018-05-10T15:12:46.179Z,39.60
2018-05-10T15:15:13.841Z,39.00
2018-05-10T15:17:41.508Z,38.30
2018-05-10T15:20:09.640Z,38.30
2018-05-10T15:22:37.415Z,38.20
2018-05-10T15:25:05.130Z,38.40
2018-05-10T15:27:33.567Z,38.30
2018-05-10T15:30:01.357Z,38.30
2018-05-10T15:32:29.051Z,37.50
2018-05-10T15:34:57.528Z,36.50
2018-05-10T15:37:26.679Z,35.90
2018-05-10T15:39:54.435Z,35.90
2018-05-10T15:42:22.106Z,34.90
2018-05-10T15:44:49.801Z,34.10
2018-05-10T15:47:17.476Z,33.10
2018-05-10T15:49:45.262Z,32.20
2018-05-10T15:52:12.847Z,31.50
2018-05-10T15:54:41.315Z,30.20
2018-05-10T15:57:08.978Z,30.10
2018-05-10T15:59:37.502Z,29.50
2018-05-10T16:02:05.270Z,29.50
2018-05-10T16:04:32.979Z,29.20
2018-05-10T16:07:00.684Z,28.80
2018-05-10T16:09:28.362Z,28.60
2018-05-10T16:11:56.032Z,28.30
2018-05-10T16:14:23.794Z,28.10
2018-05-10T16:16:51.546Z,27.90
2018-05-10T16:19:19.322Z,27.70
2018-05-10T16:21:47.016Z,27.50
2018-05-10T16:24:14.777Z,27.40
2018-05-10T16:26:42.511Z,27.20
2018-05-10T16:29:10.187Z,27.20
2018-05-10T16:31:37.944Z,27.20
2018-05-10T16:34:05.626Z,27.10
2018-05-10T16:36:33.310Z,26.90
2018-05-10T16:39:00.998Z,26.60
2018-05-10T16:41:29.459Z,26.20
2018-05-10T16:43:57.172Z,26.10
2018-05-10T16:46:24.860Z,26.00
2018-05-10T16:48:52.532Z,25.80
2018-05-10T16:51:20.219Z,25.50
2018-05-10T16:53:48.686Z,25.10
2018-05-10T16:56:16.391Z,25.10
2018-05-10T16:58:44.075Z,25.00
2018-05-10T17:01:11.864Z,25.00
2018-05-10T17:03:39.628Z,25.00
2018-05-10T17:06:07.298Z,25.00
2018-05-10T17:08:34.991Z,25.10
2018-05-10T17:11:03.511Z,25.00
2018-05-10T17:13:31.187Z,24.90
2018-05-10T17:15:58.887Z,24.90
2018-05-10T17:18:26.595Z,24.60
2018-05-10T17:20:55.023Z,24.00
2018-05-10T17:23:22.776Z,24.00
2018-05-10T17:25:50.446Z,23.60
2018-05-10T17:28:18.179Z,23.20
2018-05-10T17:30:45.877Z,22.80
2018-05-10T17:33:13.620Z,22.30
2018-05-10T17:35:41.322Z,22.00
2018-05-10T17:38:09.781Z,21.20
2018-05-10T17:40:37.446Z,21.20
2018-05-10T17:43:05.143Z,20.70
2018-05-10T17:45:32.839Z,20.30
2018-05-10T17:48:00.607Z,20.00
2018-05-10T17:50:28.371Z,19.80
2018-05-10T17:52:56.051Z,19.30
2018-05-10T17:55:23.737Z,19.00
2018-05-10T17:57:51.419Z,18.90
2018-05-10T18:00:19.858Z,18.70
2018-05-10T18:02:47.630Z,18.60
2018-05-10T18:05:15.367Z,18.60
2018-05-10T18:07:43.066Z,18.60
2018-05-10T18:10:10.801Z,18.60
2018-05-10T18:12:38.491Z,18.60
2018-05-10T18:15:06.164Z,18.60
2018-05-10T18:17:33.866Z,18.70
2018-05-10T18:20:02.366Z,18.70
2018-05-10T18:22:30.062Z,18.70
2018-05-10T18:24:57.741Z,18.70
2018-05-10T18:27:25.462Z,18.70
2018-05-10T18:29:53.135Z,18.60
2018-05-10T18:32:20.829Z,18.60
2018-05-10T18:34:48.507Z,18.50
2018-05-10T18:37:16.214Z,18.50
2018-05-10T18:39:43.891Z,18.40
2018-05-10T18:42:11.647Z,18.30
2018-05-10T18:44:39.332Z,18.30
2018-05-10T18:47:07.102Z,18.30
2018-05-10T18:49:34.837Z,18.20
2018-05-10T18:52:02.604Z,18.20
2018-05-10T18:54:30.469Z,18.10
2018-05-10T18:56:58.095Z,18.00
2018-05-10T18:59:26.612Z,17.80
2018-05-10T19:01:54.332Z,17.70
2018-05-10T19:04:22.066Z,17.60
2018-05-10T19:06:49.707Z,17.60
2018-05-10T19:09:17.400Z,17.50
2018-05-10T19:11:45.079Z,17.60
2018-05-10T19:14:12.762Z,17.60
2018-05-10T19:16:40.439Z,17.60
2018-05-10T19:19:08.223Z,17.70
2018-05-10T19:21:35.991Z,17.70
2018-05-10T19:24:03.695Z,17.60
2018-05-10T19:26:31.419Z,17.60
2018-05-10T19:28:59.164Z,17.60
2018-05-10T19:31:26.803Z,17.60
2018-05-10T19:33:55.326Z,17.50
2018-05-10T19:36:22.996Z,17.50
2018-05-10T19:38:50.686Z,17.50
2018-05-10T19:41:18.354Z,17.40
2018-05-10T19:43:46.061Z,17.40
2018-05-10T19:46:13.833Z,17.40
2018-05-10T19:48:41.617Z,17.30
2018-05-10T19:51:09.296Z,17.30
2018-05-10T19:53:37.030Z,17.30
2018-05-10T19:56:04.722Z,17.30
2018-05-10T19:58:32.462Z,17.30
2018-05-10T20:01:00.143Z,17.30
2018-05-10T20:03:27.858Z,17.30
2018-05-10T20:05:55.509Z,17.40
2018-05-10T20:08:23.967Z,17.50
2018-05-10T20:10:51.705Z,17.50
2018-05-10T20:13:19.463Z,17.60
2018-05-10T20:15:47.247Z,17.60
2018-05-10T20:18:14.937Z,17.60
2018-05-10T20:20:42.612Z,17.60
2018-05-10T20:23:11.166Z,17.70
2018-05-10T20:25:38.815Z,17.70
2018-05-10T20:28:06.580Z,17.70
2018-05-10T20:30:35.391Z,17.70
2018-05-10T20:33:03.082Z,17.70
2018-05-10T20:35:31.535Z,17.60
2018-05-10T20:37:59.267Z,17.50
2018-05-10T20:40:27.030Z,17.50
2018-05-10T20:42:54.711Z,17.40
2018-05-10T20:45:22.415Z,17.40
2018-05-10T20:47:50.103Z,17.40
2018-05-10T20:50:17.888Z,17.30
2018-05-10T20:52:45.575Z,17.20
2018-05-10T20:55:13.385Z,17.20
2018-05-10T20:57:40.995Z,17.10
2018-05-10T21:00:08.700Z,17.10
2018-05-10T21:02:37.130Z,17.10
2018-05-10T21:05:04.912Z,17.00
2018-05-10T21:07:32.655Z,17.10
2018-05-10T21:10:00.413Z,17.10
2018-05-10T21:12:29.926Z,17.20
2018-05-10T21:14:57.638Z,17.30
2018-05-10T21:17:25.966Z,17.30
2018-05-10T21:19:53.730Z,17.30
2018-05-10T21:22:21.419Z,17.30
2018-05-10T21:24:49.112Z,17.20
2018-05-10T21:27:17.564Z,17.20
2018-05-10T21:29:45.298Z,17.20
2018-05-10T21:32:12.971Z,17.10
2018-05-10T21:34:40.726Z,17.10
2018-05-10T21:37:08.399Z,17.10
2018-05-10T21:39:36.163Z,17.00
2018-05-10T21:42:03.843Z,17.00
2018-05-10T21:44:31.525Z,16.90
2018-05-10T21:46:59.205Z,16.90
2018-05-10T21:49:33.434Z,16.80
2018-05-10T21:52:01.899Z,16.70
2018-05-10T21:54:30.351Z,16.70
2018-05-10T21:56:58.024Z,16.70
2018-05-10T21:59:25.772Z,16.70
2018-05-10T22:01:53.444Z,16.60
2018-05-10T22:04:21.193Z,16.60
2018-05-10T22:06:48.920Z,16.60
2018-05-10T22:09:16.628Z,16.50
2018-05-10T22:11:44.299Z,16.50
2018-05-10T22:14:12.040Z,16.40
2018-05-10T22:16:39.828Z,16.40
2018-05-10T22:19:07.507Z,16.40
2018-05-10T22:21:35.195Z,16.30
2018-05-10T22:24:03.715Z,16.30
2018-05-10T22:26:31.403Z,16.20
2018-05-10T22:28:59.134Z,16.30
2018-05-10T22:31:26.825Z,16.30
2018-05-10T22:33:54.497Z,16.20
2018-05-10T22:36:22.243Z,16.20
2018-05-10T22:38:50.020Z,16.20
2018-05-10T22:41:17.707Z,16.20
2018-05-10T22:43:45.388Z,16.10
2018-05-10T22:46:13.908Z,16.10
2018-05-10T22:48:41.578Z,16.10
2018-05-10T22:51:09.268Z,16.00
2018-05-10T22:53:37.025Z,16.00
2018-05-10T22:56:04.788Z,16.00
2018-05-10T22:58:32.439Z,16.00
2018-05-10T23:01:00.124Z,15.90
2018-05-10T23:03:27.847Z,15.90
2018-05-10T23:05:55.619Z,15.80
2018-05-10T23:08:23.301Z,15.80
2018-05-10T23:10:51.042Z,15.90
2018-05-10T23:13:18.714Z,15.90
2018-05-10T23:15:46.403Z,15.80
2018-05-10T23:18:14.081Z,15.80
2018-05-10T23:20:41.770Z,15.80
2018-05-10T23:23:10.245Z,15.70
2018-05-10T23:25:38.767Z,15.70
2018-05-10T23:28:06.440Z,15.70
2018-05-10T23:30:34.201Z,15.60
2018-05-10T23:33:02.775Z,15.60
2018-05-10T23:35:30.588Z,15.60
2018-05-10T23:37:58.224Z,15.60
2018-05-10T23:48:42.374Z,15.60
2018-05-10T23:56:41.188Z,15.50
2018-05-10T23:59:08.906Z,15.40
